»·PEaware :: N251CV L88-KSBP

N251CV :: L88-KSBP

FLIGHT INFORMATION

Flight Status: Arrived
Operator: Privately registered:
United States
More flights under this callsign
Pilot: Wilfredo S. (27884)
Aircraft: Unknown
(SF50)
More flights by this aircraft type
Origin: L88 New Cuyama
United States
Destination: KSBP San Luis Co Regl
United States
More flights between these airports :: More routes between these airports
Route:
File this flight plan on PilotEdge
Remarks: CAT 2
Altitude:
(Current/Filed)
9,000ft
Speed:
(Current/Filed)
150kts
Departed: 07-Feb-20 09:30 PM
Arrived: 07-Feb-20 09:58 PM
Distance/Time
Traveled:
50nm/0:27
Distance/Time
To Go:
Arrived

Flight Plot

Page will automatically refresh every two minutes.


Map Options




Map Legend


Flown Route
Filed Route
Departure Airport
Arrival Airport
Navaid (VOR, NDB)
Fix

Horizontal Profiles

Position Reports

Time Latitude Longitude Heading Altitude Ground
Speed
07-Feb-20 20:50 34.942852 -119.690381 283 2207ft 0kts
07-Feb-20 20:51 34.942852 -119.690381 283 2207ft 0kts
07-Feb-20 20:52 34.942852 -119.690381 283 2207ft 0kts
07-Feb-20 20:53 34.942852 -119.690381 283 2207ft 0kts
07-Feb-20 20:54 34.942852 -119.690381 283 2207ft 0kts
07-Feb-20 20:55 34.942852 -119.690381 283 2207ft 0kts
07-Feb-20 20:56 34.942852 -119.690381 283 2207ft 0kts
07-Feb-20 20:58 34.942863 -119.690281 204 2207ft 0kts
07-Feb-20 20:59 34.942863 -119.690281 204 2207ft 0kts
07-Feb-20 21:00 34.942863 -119.690281 204 2207ft 0kts
07-Feb-20 21:01 34.942863 -119.690281 204 2207ft 0kts
07-Feb-20 21:02 34.942863 -119.690281 204 2207ft 0kts
07-Feb-20 21:03 34.942863 -119.690281 204 2207ft 0kts
07-Feb-20 21:04 34.942863 -119.690281 204 2207ft 0kts
07-Feb-20 21:05 34.942863 -119.690281 204 2207ft 0kts
07-Feb-20 21:06 34.942863 -119.690281 204 2207ft 0kts
07-Feb-20 21:07 34.942863 -119.690281 204 2207ft 0kts
07-Feb-20 21:08 34.942863 -119.690281 204 2207ft 0kts
07-Feb-20 21:09 34.942863 -119.690281 204 2207ft 0kts
07-Feb-20 21:10 34.942863 -119.690281 204 2207ft 0kts
07-Feb-20 21:11 34.942863 -119.690281 204 2207ft 0kts
07-Feb-20 21:12 34.942863 -119.690281 204 2207ft 0kts
07-Feb-20 21:13 34.942863 -119.690281 204 2207ft 0kts
07-Feb-20 21:14 34.942863 -119.690281 204 2207ft 0kts
07-Feb-20 21:15 34.942863 -119.690281 204 2207ft 0kts
07-Feb-20 21:16 34.942863 -119.690281 204 2207ft 0kts
07-Feb-20 21:17 34.942863 -119.690281 204 2207ft 0kts
07-Feb-20 21:18 34.942863 -119.690281 204 2207ft 0kts
07-Feb-20 21:19 34.942863 -119.690281 204 2207ft 0kts
07-Feb-20 21:20 34.942863 -119.690281 204 2207ft 0kts
07-Feb-20 21:21 34.942863 -119.690281 204 2207ft 0kts
07-Feb-20 21:22 34.942863 -119.690281 204 2207ft 0kts
07-Feb-20 21:23 34.942863 -119.690281 204 2207ft 0kts
07-Feb-20 21:24 34.942844 -119.690359 280 2207ft 1kts
07-Feb-20 21:25 34.942692 -119.691152 206 2207ft 1kts
07-Feb-20 21:26 34.942605 -119.691205 206 2207ft 0kts
07-Feb-20 21:27 34.942576 -119.691223 206 2207ft 0kts
07-Feb-20 21:28 34.941479 -119.689285 120 2207ft 36kts
07-Feb-20 21:29 34.926335 -119.685287 270 3176ft 162kts
07-Feb-20 21:30 34.942635 -119.715539 308 6360ft 93kts
07-Feb-20 21:31 34.951849 -119.739616 292 8005ft 90kts
07-Feb-20 21:32 34.958023 -119.760873 292 9211ft 85kts
07-Feb-20 21:33 34.963062 -119.782113 289 10182ft 80kts
07-Feb-20 21:34 34.968615 -119.808898 288 10459ft 172kts
07-Feb-20 21:36 34.980958 -119.859590 288 10443ft 263kts
07-Feb-20 21:37 34.995131 -119.917491 287 10465ft 270kts
07-Feb-20 21:38 35.008374 -119.974594 286 10433ft 257kts
07-Feb-20 21:39 35.020420 -120.030041 285 10434ft 250kts
07-Feb-20 21:40 35.031491 -120.084520 285 10437ft 247kts
07-Feb-20 21:41 35.041542 -120.137507 284 10439ft 246kts
07-Feb-20 21:42 35.050747 -120.189638 283 10441ft 245kts
07-Feb-20 21:43 35.059649 -120.244097 282 10443ft 245kts
07-Feb-20 21:44 35.067953 -120.299525 281 10428ft 246kts
07-Feb-20 21:45 35.075831 -120.353079 283 7276ft 277kts
07-Feb-20 21:46 35.104783 -120.391442 354 3829ft 268kts
07-Feb-20 21:47 35.143612 -120.380545 6 3221ft 210kts
07-Feb-20 21:48 35.169704 -120.401302 291 2590ft 198kts
07-Feb-20 21:49 35.179238 -120.438359 288 2595ft 167kts
07-Feb-20 21:50 35.203118 -120.436130 59 3157ft 115kts
07-Feb-20 21:51 35.207379 -120.409089 78 3506ft 120kts
07-Feb-20 21:52 35.195239 -120.396663 246 3722ft 127kts
07-Feb-20 21:53 35.202031 -120.433253 286 3017ft 196kts
07-Feb-20 21:54 35.211809 -120.482028 282 2737ft 222kts
07-Feb-20 21:54 35.213336 -120.526689 270 2436ft 237kts
07-Feb-20 21:56 35.212247 -120.588428 289 1372ft 199kts
07-Feb-20 21:57 35.228674 -120.625728 302 483ft 195kts
07-Feb-20 21:57 35.238954 -120.643616 304 217ft 39kts
07-Feb-20 21:59 35.241338 -120.646894 30 216ft 0kts
07-Feb-20 21:59 35.241482 -120.646759 57 216ft 0kts
07-Feb-20 22:00 35.241507 -120.646671 78 216ft 2kts
07-Feb-20 22:01 35.240743 -120.644090 38 216ft 0kts
07-Feb-20 22:02 35.240743 -120.644090 38 216ft 0kts
07-Feb-20 22:03 35.240743 -120.644090 38 216ft 0kts

Navigation Log

Ident Type
Flight plan parsing failed, navigation log unavailable